Time;durP1;ratioP1;P1;durP2;ratioP2;P2;SDS_P1;SDS_P2;PMS_P1;PMS_P2;Temp;Humidity;BMP_temperature;BMP_pressure;BME280_temperature;BME280_humidity;BME280_pressure;Samples;Min_cycle;Max_cycle;Signal;HPM_P1;HPM_P2
2022/11/06 00:02:07;;;;;;;25.60;17.83;;;10.90;99.90;;;;;;4955487;29;20494;-74
2022/11/06 00:04:33;;;;;;;25.75;16.90;;;11.00;99.90;;;;;;4947766;29;20032;-73
2022/11/06 00:06:58;;;;;;;24.13;15.52;;;10.90;99.90;;;;;;4946756;29;20676;-73
2022/11/06 00:09:24;;;;;;;29.55;15.50;;;10.90;99.90;;;;;;4955783;29;20518;-75
2022/11/06 00:11:51;;;;;;;24.17;16.05;;;11.00;99.90;;;;;;4955930;29;20071;-73
2022/11/06 00:14:17;;;;;;;26.88;16.08;;;10.90;99.90;;;;;;4954177;29;20122;-75
2022/11/06 00:16:45;;;;;;;22.98;15.73;;;11.00;99.90;;;;;;4955453;29;20036;-74
2022/11/06 00:19:11;;;;;;;22.75;15.02;;;11.00;99.90;;;;;;4954920;29;20474;-73
2022/11/06 00:21:37;;;;;;;26.42;16.80;;;11.00;99.90;;;;;;4937907;29;20405;-73
2022/11/06 00:24:05;;;;;;;24.58;17.13;;;10.90;99.90;;;;;;4954630;29;20039;-75
2022/11/06 00:26:31;;;;;;;25.95;18.00;;;10.90;99.90;;;;;;4955059;29;20466;-74
2022/11/06 00:28:58;;;;;;;23.92;16.35;;;11.00;99.90;;;;;;4937438;29;20035;-74
2022/11/06 00:31:30;;;;;;;30.77;16.80;;;10.90;99.90;;;;;;4954758;29;20130;-74
2022/11/06 00:33:58;;;;;;;26.90;19.05;;;10.90;99.90;;;;;;4951784;29;20411;-74
2022/11/06 00:36:25;;;;;;;25.90;17.65;;;10.90;99.90;;;;;;4946558;29;20122;-73
2022/11/06 00:38:55;;;;;;;29.15;17.63;;;10.90;99.90;;;;;;4952695;29;20054;-74
2022/11/06 00:41:21;;;;;;;28.92;19.30;;;10.80;99.90;;;;;;4933253;29;20123;-73
2022/11/06 00:43:53;;;;;;;27.02;18.42;;;10.80;99.90;;;;;;4923336;29;20069;-74
2022/11/06 00:46:19;;;;;;;28.13;17.70;;;10.80;99.90;;;;;;4918345;29;20093;-75
2022/11/06 00:48:45;;;;;;;24.55;16.85;;;10.80;99.90;;;;;;4915261;29;20064;-75
2022/11/06 00:51:23;;;;;;;27.92;19.85;;;10.80;99.90;;;;;;4915654;29;20043;-74
2022/11/06 00:53:57;;;;;;;27.83;16.98;;;10.80;99.90;;;;;;4931512;29;20044;-76
2022/11/06 00:56:24;;;;;;;30.88;18.77;;;10.80;99.90;;;;;;4906321;29;20118;-75
2022/11/06 00:58:51;;;;;;;30.70;18.92;;;10.80;99.90;;;;;;4933882;29;20351;-75
2022/11/06 01:01:19;;;;;;;26.77;19.20;;;10.80;99.90;;;;;;4934137;29;20206;-75
2022/11/06 01:03:47;;;;;;;29.42;18.30;;;10.70;99.90;;;;;;4934311;29;20378;-75
2022/11/06 01:06:16;;;;;;;30.52;18.33;;;10.70;99.90;;;;;;4931519;29;20536;-75
2022/11/06 01:08:43;;;;;;;29.52;18.50;;;10.80;99.90;;;;;;4933826;29;20564;-75
2022/11/06 01:11:22;;;;;;;29.83;17.98;;;10.70;99.90;;;;;;4934139;29;20048;-74
2022/11/06 01:13:50;;;;;;;27.20;18.48;;;10.80;99.90;;;;;;4934073;29;20118;-75
2022/11/06 01:16:17;;;;;;;33.75;19.23;;;10.70;99.90;;;;;;4933943;29;20040;-76
2022/11/06 01:18:44;;;;;;;30.30;18.73;;;10.70;99.90;;;;;;4933724;29;20040;-75
2022/11/06 01:21:12;;;;;;;32.38;19.30;;;10.70;99.90;;;;;;4924697;29;20046;-74
2022/11/06 01:23:38;;;;;;;30.08;18.90;;;10.70;99.90;;;;;;4934046;29;20039;-75
2022/11/06 01:26:06;;;;;;;34.67;18.83;;;10.70;99.90;;;;;;4934028;29;20043;-74
2022/11/06 01:28:33;;;;;;;27.50;19.25;;;10.70;99.90;;;;;;4933862;29;20046;-74
2022/11/06 01:31:07;;;;;;;33.38;20.77;;;10.70;99.90;;;;;;4933729;29;20494;-74
2022/11/06 01:33:34;;;;;;;29.27;18.75;;;10.70;99.90;;;;;;4933576;29;20040;-75
2022/11/06 01:36:00;;;;;;;32.53;21.20;;;10.70;99.90;;;;;;4933641;29;20056;-75
2022/11/06 01:38:26;;;;;;;34.35;20.33;;;10.70;99.90;;;;;;4933735;29;20052;-75
2022/11/06 01:40:52;;;;;;;30.52;19.55;;;10.70;99.90;;;;;;4939404;29;20043;-74
2022/11/06 01:43:19;;;;;;;32.58;20.33;;;10.70;99.90;;;;;;4953332;29;20043;-75
2022/11/06 01:45:47;;;;;;;29.92;19.48;;;10.70;99.90;;;;;;4952355;29;20466;-73
2022/11/06 01:48:15;;;;;;;31.92;20.05;;;10.70;99.90;;;;;;4952638;29;20089;-74
2022/11/06 01:50:43;;;;;;;33.35;20.42;;;10.70;99.90;;;;;;4952932;29;20057;-73
2022/11/06 01:53:11;;;;;;;35.28;21.17;;;10.70;99.90;;;;;;4952741;29;20046;-73
2022/11/06 01:55:44;;;;;;;29.00;19.52;;;10.70;99.90;;;;;;4952689;29;20517;-74
2022/11/06 01:58:16;;;;;;;31.33;19.00;;;10.70;99.90;;;;;;4952367;29;20142;-73
2022/11/06 02:00:42;;;;;;;33.10;20.88;;;10.70;99.90;;;;;;4952538;29;20035;-73
2022/11/06 02:03:11;;;;;;;36.45;22.25;;;10.70;99.90;;;;;;4952470;29;20093;-74
2022/11/06 02:05:38;;;;;;;32.90;20.70;;;10.70;99.90;;;;;;4952660;29;20042;-73
2022/11/06 02:08:05;;;;;;;35.47;20.40;;;10.70;99.90;;;;;;4952083;28;20111;-74
2022/11/06 02:10:32;;;;;;;32.97;20.55;;;10.70;99.90;;;;;;4952684;29;20039;-74
2022/11/06 02:13:15;;;;;;;37.63;21.80;;;10.70;99.90;;;;;;4952398;29;20043;-74
2022/11/06 02:16:00;;;;;;;34.70;21.67;;;10.70;99.90;;;;;;4941169;29;20125;-73
2022/11/06 02:19:08;;;;;;;30.27;20.35;;;10.70;99.90;;;;;;4952181;29;20731;-75
2022/11/06 02:21:36;;;;;;;32.38;19.98;;;10.70;99.90;;;;;;4874477;29;20070;-74
2022/11/06 02:24:10;;;;;;;35.17;22.23;;;10.70;99.90;;;;;;4874426;29;20045;-75
2022/11/06 02:27:17;;;;;;;33.20;20.52;;;10.80;99.90;;;;;;4874593;29;20052;-75
2022/11/06 02:30:03;;;;;;;31.77;19.05;;;10.70;99.90;;;;;;4800962;29;20053;-75
2022/11/06 02:32:35;;;;;;;36.20;19.35;;;10.70;99.90;;;;;;4800739;29;20578;-75
2022/11/06 02:35:09;;;;;;;30.95;20.25;;;10.70;99.90;;;;;;4800880;29;20073;-75
2022/11/06 02:37:38;;;;;;;31.80;20.02;;;10.70;99.90;;;;;;4800939;29;20050;-75
2022/11/06 02:40:08;;;;;;;32.05;20.00;;;10.70;99.90;;;;;;4800786;29;20042;-75
2022/11/06 02:42:39;;;;;;;30.67;20.00;;;10.70;99.90;;;;;;4800814;29;20140;-75
2022/11/06 02:45:08;;;;;;;33.47;19.45;;;10.70;99.90;;;;;;4800901;29;20403;-75
2022/11/06 02:47:35;;;;;;;33.50;19.80;;;10.70;99.90;;;;;;4800650;29;20043;-75
2022/11/06 02:50:09;;;;;;;33.15;19.40;;;10.80;99.90;;;;;;4800719;29;20364;-75
2022/11/06 02:53:12;;;;;;;33.03;19.67;;;10.80;99.90;;;;;;4804372;29;20043;-75
2022/11/06 02:55:48;;;;;;;35.70;20.17;;;10.80;99.90;;;;;;4765238;30;20587;-75
2022/11/06 02:58:50;;;;;;;31.40;19.65;;;10.90;99.90;;;;;;4783203;29;20054;-73
2022/11/06 03:01:28;;;;;;;27.35;17.25;;;10.80;99.90;;;;;;4837034;29;20103;-73
2022/11/06 03:04:00;;;;;;;31.70;20.50;;;10.80;99.90;;;;;;4839545;29;20050;-74
2022/11/06 03:06:29;;;;;;;30.15;20.98;;;10.80;99.90;;;;;;4877289;29;20043;-74
2022/11/06 03:09:03;;;;;;;33.63;19.98;;;10.80;99.90;;;;;;4892484;29;20032;-74
2022/11/06 03:11:32;;;;;;;33.92;20.17;;;10.80;99.90;;;;;;4892387;29;20128;-74
2022/11/06 03:14:02;;;;;;;33.50;20.55;;;10.80;99.90;;;;;;4892524;29;20084;-74
2022/11/06 03:16:46;;;;;;;38.58;22.08;;;10.70;99.90;;;;;;4892009;29;20049;-74
2022/11/06 03:19:20;;;;;;;36.25;19.58;;;10.70;99.90;;;;;;4892347;29;20048;-75
2022/11/06 03:22:06;;;;;;;30.80;18.92;;;10.70;99.90;;;;;;4894667;29;20052;-75
2022/11/06 03:24:59;;;;;;;29.75;20.13;;;10.70;99.90;;;;;;4895882;29;20139;-75
2022/11/06 03:28:01;;;;;;;33.72;20.88;;;10.70;99.90;;;;;;4896278;29;20605;-75
2022/11/06 03:30:28;;;;;;;31.65;20.80;;;10.70;99.90;;;;;;4945641;29;20063;-75
2022/11/06 03:33:05;;;;;;;33.63;19.23;;;10.70;99.90;;;;;;4955249;29;20065;-74
2022/11/06 03:35:39;;;;;;;31.50;19.73;;;10.70;99.90;;;;;;4954884;29;20050;-75
2022/11/06 03:38:34;;;;;;;32.78;19.88;;;10.70;99.90;;;;;;4931995;29;20056;-75
2022/11/06 03:41:05;;;;;;;32.30;18.80;;;10.70;99.90;;;;;;4929130;29;20108;-75
2022/11/06 03:43:35;;;;;;;33.60;20.45;;;10.70;99.90;;;;;;4916235;29;20546;-74
2022/11/06 03:46:05;;;;;;;36.60;21.17;;;10.70;99.90;;;;;;4915447;29;20033;-75
2022/11/06 03:48:39;;;;;;;31.83;20.25;;;10.70;99.90;;;;;;4915560;29;20044;-74
2022/11/06 03:51:20;;;;;;;35.10;19.65;;;10.70;99.90;;;;;;4915960;29;20040;-75
2022/11/06 03:53:46;;;;;;;37.47;20.52;;;10.70;99.90;;;;;;4915254;29;20040;-75
2022/11/06 03:56:29;;;;;;;38.92;23.17;;;10.70;99.90;;;;;;4928175;29;20024;-76
2022/11/06 03:58:56;;;;;;;31.83;20.85;;;10.60;99.90;;;;;;4923989;29;20051;-74
2022/11/06 04:01:27;;;;;;;36.53;22.30;;;10.70;99.90;;;;;;4935293;29;20020;-74
2022/11/06 04:04:02;;;;;;;34.10;19.48;;;10.70;99.90;;;;;;4930109;29;20075;-74
2022/11/06 04:06:34;;;;;;;32.22;20.30;;;10.70;99.90;;;;;;4926914;29;20036;-75
2022/11/06 04:14:36;;;;;;;31.48;21.25;;;10.70;99.90;;;;;;4932785;29;20479;-75
2022/11/06 04:17:06;;;;;;;37.17;21.00;;;10.60;99.90;;;;;;4923650;29;20040;-75
2022/11/06 04:19:32;;;;;;;31.10;19.10;;;10.60;99.90;;;;;;4923828;29;20509;-75
2022/11/06 04:22:07;;;;;;;32.88;20.05;;;10.60;99.90;;;;;;4922727;29;20063;-74
2022/11/06 04:27:26;;;;;;;33.92;18.98;;;10.60;99.90;;;;;;4923991;29;20360;-75
2022/11/06 04:30:02;;;;;;;30.88;19.83;;;10.60;99.90;;;;;;4932956;29;20034;-75
2022/11/06 04:32:43;;;;;;;27.60;17.83;;;10.60;99.90;;;;;;4932987;29;20040;-76
2022/11/06 04:35:47;;;;;;;27.77;18.23;;;10.70;99.90;;;;;;4929658;29;20084;-75
2022/11/06 04:38:27;;;;;;;30.15;18.80;;;10.70;99.90;;;;;;4852319;29;20077;-75
2022/11/06 04:41:16;;;;;;;28.50;18.60;;;10.70;99.90;;;;;;4862952;29;20049;-75
2022/11/06 04:43:48;;;;;;;25.63;17.42;;;10.60;99.90;;;;;;4875956;29;20045;-75
2022/11/06 04:46:25;;;;;;;29.98;19.15;;;10.70;99.90;;;;;;4871348;29;20045;-74
2022/11/06 04:48:51;;;;;;;32.47;17.40;;;10.70;99.90;;;;;;4873770;29;20080;-74
2022/11/06 04:51:24;;;;;;;25.88;17.85;;;10.60;99.90;;;;;;4868605;29;20068;-75
2022/11/06 04:53:51;;;;;;;;;;;10.60;99.90;;;;;;4875687;29;20056;-73
2022/11/06 04:56:24;;;;;;;24.73;16.70;;;10.60;99.90;;;;;;4872343;29;19995;-75
2022/11/06 04:58:50;;;;;;;27.63;17.00;;;10.60;99.90;;;;;;4875387;29;20113;-74
2022/11/06 05:01:16;;;;;;;25.17;15.43;;;10.60;99.90;;;;;;4875504;29;20033;-74
2022/11/06 05:03:42;;;;;;;26.67;16.70;;;10.60;99.90;;;;;;4873969;29;20270;-75
2022/11/06 05:06:08;;;;;;;33.42;18.25;;;10.60;99.90;;;;;;4874736;29;20111;-74
2022/11/06 05:08:34;;;;;;;29.60;16.63;;;10.60;99.90;;;;;;4870079;29;20475;-74
2022/11/06 05:10:59;;;;;;;26.95;16.65;;;10.60;99.90;;;;;;4867158;29;20052;-75
2022/11/06 05:13:25;;;;;;;27.67;16.45;;;10.60;99.90;;;;;;4875317;29;20492;-74
2022/11/06 05:15:56;;;;;;;27.25;15.93;;;10.60;99.90;;;;;;4940887;29;20039;-75
2022/11/06 05:18:22;;;;;;;28.08;17.52;;;10.60;99.90;;;;;;4950558;29;20039;-74
2022/11/06 05:20:48;;;;;;;26.25;16.27;;;10.60;99.90;;;;;;4953425;29;20557;-74
2022/11/06 05:23:14;;;;;;;27.88;16.98;;;10.60;99.90;;;;;;4952180;29;20118;-74
2022/11/06 05:25:41;;;;;;;29.58;17.98;;;10.60;99.90;;;;;;4945012;29;20039;-74
2022/11/06 05:28:07;;;;;;;29.38;16.13;;;10.60;99.90;;;;;;4948272;29;20082;-74
2022/11/06 05:30:35;;;;;;;28.25;17.48;;;10.60;99.90;;;;;;4952448;29;20108;-74
2022/11/06 05:33:01;;;;;;;31.25;16.75;;;10.60;99.90;;;;;;4945360;29;20086;-74
2022/11/06 05:35:27;;;;;;;23.23;16.10;;;10.60;99.90;;;;;;4953815;29;20035;-74
2022/11/06 05:38:00;;;;;;;27.45;17.85;;;10.60;99.90;;;;;;4944642;29;20126;-74
2022/11/06 05:40:26;;;;;;;25.63;16.60;;;10.60;99.90;;;;;;4947798;29;20027;-74
2022/11/06 05:42:52;;;;;;;27.73;17.00;;;10.60;99.90;;;;;;4946846;28;20449;-73
2022/11/06 05:45:18;;;;;;;27.90;15.70;;;10.60;99.90;;;;;;4952029;29;20470;-74
2022/11/06 05:47:43;;;;;;;29.98;17.10;;;10.60;99.90;;;;;;4940063;29;20085;-75
2022/11/06 05:50:10;;;;;;;31.25;16.73;;;10.50;99.90;;;;;;4953676;29;20044;-75
2022/11/06 05:52:36;;;;;;;29.25;16.65;;;10.50;99.90;;;;;;4953903;29;20039;-74
2022/11/06 05:55:02;;;;;;;25.70;16.13;;;10.50;99.90;;;;;;4953962;29;20047;-75
2022/11/06 05:57:28;;;;;;;29.60;16.52;;;10.50;99.90;;;;;;4951657;29;20043;-74
2022/11/06 05:59:54;;;;;;;25.50;14.52;;;10.50;99.90;;;;;;4942229;29;20383;-74
2022/11/06 06:02:19;;;;;;;23.67;14.02;;;10.50;99.90;;;;;;4953532;29;20121;-74
2022/11/06 06:04:45;;;;;;;27.90;15.88;;;10.50;99.90;;;;;;4954013;29;20035;-74
2022/11/06 06:07:11;;;;;;;28.67;14.90;;;10.50;99.90;;;;;;4953616;29;20027;-74
2022/11/06 06:09:37;;;;;;;28.83;17.23;;;10.50;99.90;;;;;;4953592;29;20087;-74
2022/11/06 06:12:03;;;;;;;27.48;16.27;;;10.50;99.90;;;;;;4953747;29;20042;-74
2022/11/06 06:14:28;;;;;;;29.48;16.02;;;10.50;99.90;;;;;;4953809;29;20047;-74
2022/11/06 06:16:54;;;;;;;31.15;17.33;;;10.50;99.90;;;;;;4953390;29;20027;-75
2022/11/06 06:19:20;;;;;;;30.30;15.57;;;10.50;99.90;;;;;;4953562;29;20047;-74
2022/11/06 06:21:46;;;;;;;26.17;15.75;;;10.60;99.90;;;;;;4953612;29;20031;-74
2022/11/06 06:24:12;;;;;;;29.10;16.05;;;10.60;99.90;;;;;;4953557;29;20035;-74
2022/11/06 06:26:37;;;;;;;26.92;15.07;;;10.60;99.90;;;;;;4953433;29;20035;-75
2022/11/06 06:29:03;;;;;;;28.25;15.95;;;10.60;99.90;;;;;;4953704;29;20039;-74
2022/11/06 06:31:29;;;;;;;28.13;16.45;;;10.60;99.90;;;;;;4953394;29;20031;-75
2022/11/06 06:33:55;;;;;;;26.58;14.95;;;10.60;99.90;;;;;;4952160;29;20031;-74
2022/11/06 06:36:21;;;;;;;25.13;14.15;;;10.60;99.90;;;;;;4944198;29;20442;-74
2022/11/06 06:38:46;;;;;;;28.02;15.95;;;10.70;99.90;;;;;;4953270;29;20102;-74
2022/11/06 06:41:12;;;;;;;27.77;15.25;;;10.60;99.90;;;;;;4953449;29;20043;-74
2022/11/06 06:43:38;;;;;;;31.20;16.05;;;10.60;99.90;;;;;;4953004;29;20043;-74
2022/11/06 06:46:06;;;;;;;27.45;15.55;;;10.70;99.90;;;;;;4953521;29;20040;-74
2022/11/06 06:48:32;;;;;;;28.73;17.13;;;10.70;99.90;;;;;;4953173;29;20035;-74
2022/11/06 06:50:59;;;;;;;27.83;16.35;;;10.70;99.90;;;;;;4953884;29;20043;-74
2022/11/06 06:53:25;;;;;;;27.52;16.85;;;10.70;99.90;;;;;;4953319;29;20079;-75
2022/11/06 06:55:52;;;;;;;28.00;15.98;;;10.70;99.90;;;;;;4954456;28;20053;-74
2022/11/06 06:58:18;;;;;;;23.52;13.65;;;10.70;99.90;;;;;;4956207;29;20098;-73
2022/11/06 07:00:44;;;;;;;28.52;17.17;;;10.70;99.90;;;;;;4951572;29;20023;-73
2022/11/06 07:03:10;;;;;;;23.45;15.50;;;10.70;99.90;;;;;;4945718;29;20082;-74
2022/11/06 07:05:36;;;;;;;25.45;15.35;;;10.70;99.90;;;;;;4940732;29;20475;-73
2022/11/06 07:08:02;;;;;;;23.90;14.68;;;10.70;99.90;;;;;;4952209;29;20039;-73
2022/11/06 07:10:29;;;;;;;28.38;15.77;;;10.70;99.90;;;;;;4955758;29;20034;-73
2022/11/06 07:12:59;;;;;;;24.27;15.27;;;10.70;99.90;;;;;;4957512;29;20058;-73
2022/11/06 07:15:26;;;;;;;23.13;13.27;;;10.70;99.90;;;;;;4939341;29;20118;-74
2022/11/06 07:17:54;;;;;;;23.02;13.77;;;10.70;99.90;;;;;;4952787;29;20118;-73
2022/11/06 07:20:19;;;;;;;27.75;16.00;;;10.70;99.90;;;;;;4955912;29;20036;-74
2022/11/06 07:22:45;;;;;;;20.55;13.88;;;10.70;99.90;;;;;;4957076;29;20054;-74
2022/11/06 07:25:11;;;;;;;21.88;13.60;;;10.70;99.90;;;;;;4950576;29;20031;-74
2022/11/06 07:27:37;;;;;;;25.48;14.35;;;10.70;99.90;;;;;;4956193;29;20045;-73
2022/11/06 07:30:03;;;;;;;22.08;13.88;;;10.80;99.90;;;;;;4953062;29;20478;-74
2022/11/06 07:32:30;;;;;;;22.02;13.43;;;10.80;99.90;;;;;;4949809;29;20416;-74
2022/11/06 07:34:55;;;;;;;21.95;12.63;;;10.70;99.90;;;;;;4948071;29;20090;-74
2022/11/06 07:37:21;;;;;;;21.95;13.82;;;10.80;99.90;;;;;;4950876;29;20043;-74
2022/11/06 07:39:47;;;;;;;19.10;12.88;;;10.70;99.90;;;;;;4956474;29;20043;-74
2022/11/06 07:42:13;;;;;;;23.55;12.73;;;10.70;99.90;;;;;;4955823;29;20039;-75
2022/11/06 07:44:54;;;;;;;26.88;15.10;;;10.70;99.90;;;;;;4939050;29;20524;-74
2022/11/06 07:47:21;;;;;;;20.65;13.32;;;10.80;99.90;;;;;;4955580;29;20573;-74
2022/11/06 07:49:47;;;;;;;22.70;13.40;;;10.80;99.90;;;;;;4952873;29;20039;-74
2022/11/06 07:52:12;;;;;;;23.15;13.05;;;10.80;99.90;;;;;;4956021;29;20441;-74
2022/11/06 07:54:38;;;;;;;26.08;14.32;;;10.80;99.90;;;;;;4954604;29;20118;-74
2022/11/06 07:57:04;;;;;;;21.17;12.20;;;10.80;99.90;;;;;;4949438;29;20043;-74
2022/11/06 07:59:33;;;;;;;27.50;15.30;;;10.80;99.90;;;;;;4912730;29;20043;-75
2022/11/06 08:01:58;;;;;;;21.00;12.73;;;10.80;99.90;;;;;;4948630;29;20039;-75
2022/11/06 08:04:24;;;;;;;21.42;13.73;;;10.70;99.90;;;;;;4951764;29;20054;-75
2022/11/06 08:06:50;;;;;;;23.08;14.52;;;10.80;99.90;;;;;;4950261;28;20079;-74
2022/11/06 08:09:16;;;;;;;23.40;12.82;;;10.80;99.90;;;;;;4952913;29;20107;-75
2022/11/06 08:11:42;;;;;;;25.45;13.63;;;10.70;99.90;;;;;;4947544;29;20058;-75
2022/11/06 08:14:09;;;;;;;21.35;12.90;;;10.80;99.90;;;;;;4941947;29;20043;-74
2022/11/06 08:16:35;;;;;;;21.67;12.25;;;10.80;99.90;;;;;;4949455;29;20103;-74
2022/11/06 08:19:01;;;;;;;18.60;11.38;;;10.80;99.90;;;;;;4948855;29;20047;-74
2022/11/06 08:21:27;;;;;;;21.02;11.90;;;10.80;99.90;;;;;;4952187;29;20126;-75
2022/11/06 08:23:53;;;;;;;21.90;12.27;;;10.80;99.90;;;;;;4949760;29;20115;-74
2022/11/06 08:26:19;;;;;;;18.42;11.25;;;10.80;99.90;;;;;;4952663;29;20561;-73
2022/11/06 08:28:45;;;;;;;19.80;11.30;;;10.80;99.90;;;;;;4954353;29;20042;-76
2022/11/06 08:31:11;;;;;;;21.10;12.68;;;10.80;99.90;;;;;;4935399;29;20039;-75
2022/11/06 08:33:38;;;;;;;21.33;13.38;;;10.90;99.90;;;;;;4951896;29;20035;-75
2022/11/06 08:36:06;;;;;;;22.65;12.82;;;10.90;99.90;;;;;;4953690;29;20058;-73
2022/11/06 08:38:32;;;;;;;23.02;14.27;;;10.90;99.90;;;;;;4953031;29;20047;-74
2022/11/06 08:41:02;;;;;;;22.17;14.07;;;10.90;99.90;;;;;;4946355;29;20047;-75
2022/11/06 08:43:28;;;;;;;22.77;12.43;;;10.90;99.90;;;;;;4932519;29;20390;-75
2022/11/06 08:45:54;;;;;;;20.45;13.13;;;10.90;99.90;;;;;;4935142;29;20085;-74
2022/11/06 08:48:20;;;;;;;24.67;15.65;;;11.00;99.90;;;;;;4934695;29;20032;-75
2022/11/06 08:50:45;;;;;;;24.25;16.25;;;11.10;99.90;;;;;;4935180;29;20450;-76
2022/11/06 08:53:11;;;;;;;22.98;14.00;;;11.00;99.90;;;;;;4933400;29;20094;-75
2022/11/06 08:55:38;;;;;;;20.48;13.00;;;11.10;99.90;;;;;;4935183;29;20474;-74
2022/11/06 08:58:05;;;;;;;23.92;13.25;;;11.10;99.90;;;;;;4934108;29;20079;-74
2022/11/06 09:00:31;;;;;;;23.83;13.48;;;11.10;99.90;;;;;;4935059;29;20028;-74
2022/11/06 09:02:59;;;;;;;20.10;12.45;;;11.00;99.90;;;;;;4933581;29;20031;-76
2022/11/06 09:05:25;;;;;;;17.60;10.60;;;11.10;99.90;;;;;;4934592;29;20059;-77
2022/11/06 09:07:51;;;;;;;20.75;11.98;;;11.10;99.90;;;;;;4935018;29;20036;-75
2022/11/06 09:10:17;;;;;;;23.10;12.57;;;11.10;99.90;;;;;;4933899;29;20435;-76
2022/11/06 09:12:42;;;;;;;20.60;11.70;;;11.10;99.90;;;;;;4924513;29;20043;-76
2022/11/06 09:15:08;;;;;;;18.08;11.82;;;11.10;99.90;;;;;;4930921;29;20028;-75
2022/11/06 09:17:44;;;;;;;18.42;10.82;;;11.10;99.90;;;;;;4935204;29;20134;-74
2022/11/06 09:20:11;;;;;;;15.18;9.40;;;11.10;99.90;;;;;;4934734;29;20039;-74
2022/11/06 09:22:37;;;;;;;15.27;8.63;;;11.10;99.90;;;;;;4934917;29;20032;-74
2022/11/06 09:25:03;;;;;;;16.23;9.68;;;11.10;99.90;;;;;;4933952;29;20024;-74
2022/11/06 09:27:29;;;;;;;18.10;10.45;;;11.10;99.90;;;;;;4931685;29;20036;-76
2022/11/06 09:29:55;;;;;;;19.20;10.18;;;11.10;99.90;;;;;;4927983;29;20040;-74
2022/11/06 09:32:21;;;;;;;15.35;9.68;;;11.10;99.90;;;;;;4925018;29;20031;-77
2022/11/06 09:34:47;;;;;;;21.15;12.10;;;11.10;99.90;;;;;;4927466;29;20047;-75
2022/11/06 09:37:13;;;;;;;19.80;10.27;;;11.10;99.90;;;;;;4922548;29;20040;-76
2022/11/06 09:39:38;;;;;;;15.80;9.20;;;11.10;99.90;;;;;;4919697;29;20750;-77
2022/11/06 09:42:21;;;;;;;11.38;6.53;;;11.00;99.90;;;;;;4917825;29;20050;-78
2022/11/06 09:44:47;;;;;;;13.60;7.82;;;11.00;99.90;;;;;;4911494;29;20551;-76
2022/11/06 09:47:20;;;;;;;11.45;6.72;;;11.00;99.90;;;;;;4932501;29;20031;-76
2022/11/06 09:49:48;;;;;;;;;;;11.00;99.90;;;;;;4934320;29;20032;-74
2022/11/06 09:52:37;;;;;;;12.18;6.57;;;11.10;99.90;;;;;;4933510;29;19910;-74
2022/11/06 09:55:11;;;;;;;15.55;8.15;;;11.20;99.90;;;;;;4931821;29;20036;-78
2022/11/06 09:57:42;;;;;;;14.48;8.13;;;11.20;99.90;;;;;;4919500;29;20578;-77
2022/11/06 10:00:12;;;;;;;14.65;7.93;;;11.20;99.90;;;;;;4933944;29;20035;-74
2022/11/06 10:02:44;;;;;;;13.02;6.85;;;11.20;99.90;;;;;;4934127;29;20043;-75
2022/11/06 10:05:10;;;;;;;9.77;6.28;;;11.10;99.90;;;;;;4930000;29;20107;-74
2022/11/06 10:07:38;;;;;;;13.27;6.68;;;11.10;99.90;;;;;;4934911;29;20474;-75
2022/11/06 10:10:07;;;;;;;10.85;5.68;;;11.10;99.90;;;;;;4934604;29;20028;-74
2022/11/06 10:13:00;;;;;;;13.57;6.95;;;11.20;99.90;;;;;;4933874;29;20035;-76
2022/11/06 10:15:34;;;;;;;13.43;6.72;;;11.20;99.90;;;;;;4933457;29;20070;-77
2022/11/06 10:18:04;;;;;;;11.50;7.13;;;11.30;99.90;;;;;;4927903;29;20055;-77
2022/11/06 10:20:37;;;;;;;13.02;6.90;;;11.20;99.90;;;;;;4930057;29;20486;-78
2022/11/06 10:23:35;;;;;;;13.50;7.65;;;11.20;99.90;;;;;;4933463;29;20043;-76
2022/11/06 10:26:08;;;;;;;12.07;7.47;;;11.20;99.90;;;;;;4926444;29;20047;-78
2022/11/06 10:29:02;;;;;;;12.98;6.80;;;11.20;99.90;;;;;;4933854;29;20040;-76
2022/11/06 10:31:52;;;;;;;9.20;6.20;;;11.20;99.90;;;;;;4927143;29;20043;-76
2022/11/06 10:34:33;;;;;;;12.32;6.65;;;11.10;99.90;;;;;;4945041;29;20027;-77
2022/11/06 10:37:15;;;;;;;14.93;8.10;;;11.20;99.90;;;;;;4934410;29;20871;-77
2022/11/06 10:39:43;;;;;;;11.65;6.72;;;11.30;99.90;;;;;;4943248;29;20386;-77
2022/11/06 10:42:12;;;;;;;11.35;6.45;;;11.20;99.90;;;;;;4942122;29;20047;-75
2022/11/06 10:45:07;;;;;;;10.93;6.13;;;11.20;99.90;;;;;;4942033;29;20037;-75
2022/11/06 10:47:39;;;;;;;13.77;8.20;;;11.20;99.90;;;;;;4958699;29;20048;-75
2022/11/06 10:50:12;;;;;;;12.68;7.57;;;11.20;99.90;;;;;;4963164;29;20501;-75
2022/11/06 10:52:47;;;;;;;12.43;7.07;;;11.30;99.90;;;;;;4960991;29;20043;-76
2022/11/06 10:55:38;;;;;;;11.02;6.28;;;11.30;99.90;;;;;;4964742;29;20083;-77
2022/11/06 10:58:17;;;;;;;10.38;5.45;;;11.30;99.90;;;;;;4965486;29;20055;-75
2022/11/06 11:00:48;;;;;;;11.98;6.22;;;11.40;99.90;;;;;;4936492;29;20785;-78
2022/11/06 11:03:25;;;;;;;8.55;5.07;;;11.30;99.90;;;;;;4951523;29;20090;-74
2022/11/06 11:05:51;;;;;;;9.27;4.97;;;11.30;99.90;;;;;;4945592;29;20051;-74
2022/11/06 11:08:41;;;;;;;8.07;5.13;;;11.20;99.90;;;;;;4955991;29;20034;-79
2022/11/06 11:11:21;;;;;;;10.23;5.80;;;11.20;99.90;;;;;;4952425;29;20039;-74
2022/11/06 11:13:56;;;;;;;9.52;5.32;;;11.20;99.90;;;;;;4922703;29;20152;-76
2022/11/06 11:16:46;;;;;;;8.07;5.05;;;11.20;99.90;;;;;;4932195;29;20087;-77
2022/11/06 11:19:26;;;;;;;9.68;5.10;;;11.20;99.90;;;;;;4945485;29;20051;-75
2022/11/06 11:21:55;;;;;;;11.38;6.25;;;11.30;99.90;;;;;;4962506;29;20035;-74
2022/11/06 11:24:26;;;;;;;10.55;5.80;;;11.20;99.90;;;;;;4950116;29;20023;-75
2022/11/06 11:27:06;;;;;;;8.53;5.20;;;11.30;99.90;;;;;;4959846;29;20071;-78
2022/11/06 11:29:43;;;;;;;9.45;5.72;;;11.20;99.90;;;;;;4958479;29;20630;-76
2022/11/06 11:32:15;;;;;;;10.50;5.13;;;11.20;99.90;;;;;;4939326;29;20035;-77
2022/11/06 11:34:47;;;;;;;11.82;6.30;;;11.30;99.90;;;;;;4950386;29;20118;-77
2022/11/06 11:37:29;;;;;;;12.23;7.32;;;11.20;99.90;;;;;;4956243;29;20043;-77
2022/11/06 11:39:58;;;;;;;10.65;6.22;;;11.20;99.90;;;;;;4958234;29;20054;-76
2022/11/06 11:42:32;;;;;;;8.45;5.28;;;11.20;99.90;;;;;;4960459;28;20035;-76
2022/11/06 11:45:14;;;;;;;10.63;6.22;;;11.20;99.90;;;;;;4954112;29;20043;-78
2022/11/06 11:47:44;;;;;;;11.98;6.35;;;11.20;99.90;;;;;;4927570;29;20278;-77
2022/11/06 11:50:16;;;;;;;10.25;6.50;;;11.20;99.90;;;;;;4955532;29;20050;-76
2022/11/06 11:52:45;;;;;;;16.15;10.13;;;11.30;99.90;;;;;;4952100;29;20134;-76
2022/11/06 11:55:19;;;;;;;13.82;8.90;;;11.30;99.90;;;;;;4947751;29;20482;-76
2022/11/06 11:57:48;;;;;;;17.35;12.40;;;11.30;99.90;;;;;;4955623;29;20071;-77
2022/11/06 12:00:17;;;;;;;36.30;28.38;;;11.30;99.90;;;;;;4949399;29;20031;-77
2022/11/06 12:02:48;;;;;;;17.45;12.23;;;11.40;99.90;;;;;;4953719;29;20430;-78
2022/11/06 12:05:20;;;;;;;15.55;7.22;;;11.30;99.90;;;;;;4955349;29;20126;-77
2022/11/06 12:07:57;;;;;;;13.07;7.35;;;11.30;99.90;;;;;;4951720;29;20043;-77
2022/11/06 12:10:42;;;;;;;12.77;7.75;;;11.30;99.90;;;;;;4952966;29;20111;-78
2022/11/06 12:13:22;;;;;;;20.63;10.65;;;11.30;99.90;;;;;;4952040;29;20070;-78
2022/11/06 12:16:07;;;;;;;12.43;6.10;;;11.40;99.90;;;;;;4943456;29;20040;-78
2022/11/06 12:18:41;;;;;;;11.40;6.85;;;11.30;99.90;;;;;;4938890;29;20550;-76
2022/11/06 12:21:28;;;;;;;10.70;5.78;;;11.30;99.90;;;;;;4955276;29;20035;-78
2022/11/06 12:24:17;;;;;;;10.93;6.63;;;11.30;99.90;;;;;;4955009;29;20083;-78
2022/11/06 12:26:56;;;;;;;13.55;7.18;;;11.30;99.90;;;;;;4954837;29;20055;-79
2022/11/06 12:29:38;;;;;;;11.50;7.18;;;11.30;99.90;;;;;;4947469;29;20032;-76
2022/11/06 12:32:31;;;;;;;16.50;8.20;;;11.30;99.90;;;;;;4951139;29;20051;-76
2022/11/06 12:35:06;;;;;;;14.68;7.75;;;11.50;99.90;;;;;;4951675;29;20063;-77
2022/11/06 12:38:01;;;;;;;15.10;9.65;;;11.50;99.90;;;;;;4953329;29;20051;-76
2022/11/06 12:40:38;;;;;;;13.38;8.57;;;11.40;99.90;;;;;;4951095;29;20043;-76
2022/11/06 12:43:36;;;;;;;14.05;8.13;;;11.40;99.90;;;;;;4954913;29;20047;-75
2022/11/06 12:46:28;;;;;;;14.85;7.93;;;11.40;99.90;;;;;;4876745;29;20048;-77
2022/11/06 12:49:31;;;;;;;12.80;7.43;;;11.40;99.90;;;;;;4856003;29;20033;-79
2022/11/06 12:52:27;;;;;;;14.87;7.37;;;11.30;99.90;;;;;;4861221;29;20049;-78
2022/11/06 12:55:40;;;;;;;14.77;7.68;;;11.30;99.90;;;;;;4873106;29;20832;-81
2022/11/06 12:58:33;;;;;;;14.70;8.63;;;11.30;99.90;;;;;;4808238;29;20051;-80
2022/11/06 13:01:17;;;;;;;12.10;7.00;;;11.30;99.90;;;;;;4808629;29;20055;-80
2022/11/06 13:03:54;;;;;;;11.98;6.63;;;11.20;99.90;;;;;;4803121;29;20573;-78